Time;durP1;ratioP1;P1;durP2;ratioP2;P2;SDS_P1;SDS_P2;PMS_P1;PMS_P2;Temp;Humidity;BMP_temperature;BMP_pressure;BME280_temperature;BME280_humidity;BME280_pressure;Samples;Min_cycle;Max_cycle;Signal;HPM_P1;HPM_P2
2022/03/25 00:00:41;;;;;;;;;;;;;;;9.58;55.10;102245.84;4424341;32;20320;-71
2022/03/25 00:03:07;;;;;;;;;;;;;;;9.56;55.23;102245.47;4425934;32;19988;-70
2022/03/25 00:05:33;;;;;;;;;;;;;;;9.49;55.13;102245.44;4412440;32;20008;-70
2022/03/25 00:07:59;;;;;;;;;;;;;;;9.66;54.70;102241.88;4425727;32;20343;-70
2022/03/25 00:10:25;;;;;;;;;;;;;;;9.50;54.80;102241.44;4425191;32;20001;-70
2022/03/25 00:12:50;;;;;;;;;;;;;;;9.46;54.81;102242.59;4425050;32;19996;-70
2022/03/25 00:15:16;;;;;;;;;;;;;;;9.42;55.02;102241.81;4424001;32;19953;-70
2022/03/25 00:17:43;;;;;;;;;;;;;;;9.57;54.68;102247.06;4424936;32;20002;-70
2022/03/25 00:20:08;;;;;;;;;;;;;;;9.42;54.85;102239.00;4424673;32;19964;-70
2022/03/25 00:22:34;;;;;;;;;;;;;;;9.56;54.30;102239.84;4425998;32;19949;-70
2022/03/25 00:25:04;;;;;;;;;;;;;;;9.36;54.33;102244.16;4424629;32;19994;-70
2022/03/25 00:27:31;;;;;;;;;;;;;;;9.48;54.10;102252.25;4424946;32;19949;-70
2022/03/25 00:29:56;;;;;;;;;;;;;;;9.45;53.95;102247.41;4424922;32;20375;-70
2022/03/25 00:32:22;;;;;;;;;;;;;;;9.47;54.02;102247.84;4423716;32;20064;-70
2022/03/25 00:34:48;;;;;;;;;;;;;;;9.31;54.11;102244.56;4425766;32;19964;-70
2022/03/25 00:37:14;;;;;;;;;;;;;;;9.38;54.36;102253.00;4425804;32;20398;-70
2022/03/25 00:39:40;;;;;;;;;;;;;;;9.46;54.06;102248.22;4425271;32;19987;-70
2022/03/25 00:42:06;;;;;;;;;;;;;;;9.42;54.23;102253.81;4424149;32;19968;-70
2022/03/25 00:44:31;;;;;;;;;;;;;;;9.21;55.17;102236.84;4424865;32;20431;-70
2022/03/25 00:46:58;;;;;;;;;;;;;;;9.12;55.37;102242.06;4424177;32;19960;-70
2022/03/25 00:49:24;;;;;;;;;;;;;;;9.12;55.38;102244.84;4424775;32;20044;-70
2022/03/25 00:51:50;;;;;;;;;;;;;;;9.10;55.17;102238.81;4422967;32;19989;-70
2022/03/25 00:54:16;;;;;;;;;;;;;;;9.10;55.24;102241.62;4425801;32;19972;-70
2022/03/25 00:56:43;;;;;;;;;;;;;;;9.23;54.78;102250.50;4423465;32;19980;-70
2022/03/25 00:59:16;;;;;;;;;;;;;;;9.23;54.52;102245.72;4422087;32;20342;-70
2022/03/25 01:01:46;;;;;;;;;;;;;;;9.05;55.02;102241.19;4422764;32;19971;-70
2022/03/25 01:04:12;;;;;;;;;;;;;;;9.10;55.01;102235.19;4424762;32;20000;-70
2022/03/25 01:06:38;;;;;;;;;;;;;;;8.96;55.44;102243.53;4426163;32;19990;-70
2022/03/25 01:09:06;;;;;;;;;;;;;;;9.00;55.60;102245.19;4423346;32;20445;-70
2022/03/25 01:11:31;;;;;;;;;;;;;;;8.86;56.20;102233.84;4424980;32;19957;-70
2022/03/25 01:13:58;;;;;;;;;;;;;;;8.80;56.39;102241.03;4424906;32;20412;-70
2022/03/25 01:16:24;;;;;;;;;;;;;;;9.29;54.53;102249.75;4425504;32;19989;-70
2022/03/25 01:18:50;;;;;;;;;;;;;;;8.94;55.82;102231.88;4423840;32;20031;-70
2022/03/25 01:21:17;;;;;;;;;;;;;;;8.75;56.53;102230.19;4423354;32;20322;-71
2022/03/25 01:23:44;;;;;;;;;;;;;;;8.75;56.29;102238.59;4426307;32;19993;-69
2022/03/25 01:26:09;;;;;;;;;;;;;;;8.73;56.16;102223.31;4423881;32;19968;-71
2022/03/25 01:28:35;;;;;;;;;;;;;;;8.75;55.80;102234.97;4424017;32;20179;-71
2022/03/25 01:31:01;;;;;;;;;;;;;;;8.73;55.92;102234.53;4424579;32;20414;-71
2022/03/25 01:33:27;;;;;;;;;;;;;;;8.79;55.83;102235.78;4426084;32;19977;-71
2022/03/25 01:35:52;;;;;;;;;;;;;;;8.77;55.83;102233.37;4423808;32;19980;-71
2022/03/25 01:38:18;;;;;;;;;;;;;;;8.78;55.66;102223.78;4423039;32;20000;-71
2022/03/25 01:40:43;;;;;;;;;;;;;;;8.80;55.59;102220.59;4424584;32;19993;-71
2022/03/25 01:43:09;;;;;;;;;;;;;;;8.81;55.51;102222.97;4423547;32;20069;-71
2022/03/25 01:45:36;;;;;;;;;;;;;;;8.65;55.90;102214.03;4425352;32;20330;-71
2022/03/25 01:48:03;;;;;;;;;;;;;;;8.72;56.36;102224.53;4425334;32;20319;-71
2022/03/25 01:50:29;;;;;;;;;;;;;;;8.68;56.54;102218.88;4422727;32;19953;-71
2022/03/25 01:52:55;;;;;;;;;;;;;;;8.71;56.90;102223.72;4424271;32;19954;-71
2022/03/25 01:55:24;;;;;;;;;;;;;;;8.65;57.40;102219.66;4425713;32;20076;-69
2022/03/25 01:57:50;;;;;;;;;;;;;;;8.62;57.95;102214.81;4425439;32;19976;-71
2022/03/25 02:00:19;;;;;;;;;;;;;;;8.59;58.13;102212.00;4422776;32;19993;-71
2022/03/25 02:02:44;;;;;;;;;;;;;;;8.56;58.11;102216.37;4423174;32;20368;-69
2022/03/25 02:05:10;;;;;;;;;;;;;;;8.52;58.40;102220.34;4424555;32;20013;-71
2022/03/25 02:07:36;;;;;;;;;;;;;;;8.57;57.70;102215.22;4424198;32;20001;-71
2022/03/25 02:10:02;;;;;;;;;;;;;;;8.51;57.77;102216.75;4424592;32;20384;-71
2022/03/25 02:12:28;;;;;;;;;;;;;;;8.51;58.20;102216.75;4423797;32;20400;-71
2022/03/25 02:14:57;;;;;;;;;;;;;;;8.46;58.66;102219.09;4424667;32;19957;-71
2022/03/25 02:17:22;;;;;;;;;;;;;;;8.41;58.96;102209.06;4424016;32;20150;-71
2022/03/25 02:19:48;;;;;;;;;;;;;;;8.39;59.12;102216.25;4423539;32;19993;-71
2022/03/25 02:22:14;;;;;;;;;;;;;;;8.40;58.72;102215.06;4422762;32;19997;-71
2022/03/25 02:24:40;;;;;;;;;;;;;;;8.40;58.73;102209.47;4423342;32;19971;-71
2022/03/25 02:27:06;;;;;;;;;;;;;;;8.32;58.75;102214.19;4423138;32;19986;-71
2022/03/25 02:29:33;;;;;;;;;;;;;;;8.31;58.71;102209.75;4422874;32;20088;-71
2022/03/25 02:31:59;;;;;;;;;;;;;;;8.31;58.81;102208.97;4424170;32;19964;-71
2022/03/25 02:34:24;;;;;;;;;;;;;;;8.33;58.61;102213.00;4424034;32;19949;-71
2022/03/25 02:36:50;;;;;;;;;;;;;;;8.30;58.67;102213.78;4426024;32;19988;-71
2022/03/25 02:39:17;;;;;;;;;;;;;;;8.33;58.85;102217.78;4423472;32;20030;-71
2022/03/25 02:41:43;;;;;;;;;;;;;;;8.32;58.78;102214.19;4420839;32;20025;-71
2022/03/25 02:44:10;;;;;;;;;;;;;;;8.32;59.10;102217.00;4425450;32;19998;-71
2022/03/25 02:46:36;;;;;;;;;;;;;;;8.33;59.23;102215.81;4423731;32;20004;-71
2022/03/25 02:49:01;;;;;;;;;;;;;;;8.25;59.65;102211.31;4423074;32;19953;-71
2022/03/25 02:51:27;;;;;;;;;;;;;;;8.24;59.78;102209.72;4423649;32;19996;-71
2022/03/25 02:53:53;;;;;;;;;;;;;;;8.25;59.74;102210.53;4422264;32;20012;-71
2022/03/25 02:56:19;;;;;;;;;;;;;;;8.22;59.90;102214.06;4422910;32;19968;-71
2022/03/25 02:58:45;;;;;;;;;;;;;;;8.18;59.89;102208.41;4424005;32;20012;-71
2022/03/25 03:01:12;;;;;;;;;;;;;;;8.18;59.77;102205.63;4419388;32;20401;-71
2022/03/25 03:03:37;;;;;;;;;;;;;;;8.15;60.03;102206.37;4422946;32;19989;-71
2022/03/25 03:06:03;;;;;;;;;;;;;;;8.19;59.75;102208.03;4424367;32;19995;-71
2022/03/25 03:08:30;;;;;;;;;;;;;;;8.18;59.72;102212.03;4422871;32;20044;-71
2022/03/25 03:10:56;;;;;;;;;;;;;;;8.19;59.96;102219.25;4408072;32;20312;-71
2022/03/25 03:13:22;;;;;;;;;;;;;;;8.16;60.04;102216.41;4423008;32;19964;-71
2022/03/25 03:15:48;;;;;;;;;;;;;;;8.06;60.28;102228.34;4426471;32;19990;-71
2022/03/25 03:18:14;;;;;;;;;;;;;;;8.21;60.05;102221.66;4425882;32;19989;-71
2022/03/25 03:20:40;;;;;;;;;;;;;;;8.19;60.25;102215.63;4426903;32;19973;-71
2022/03/25 03:23:07;;;;;;;;;;;;;;;8.15;60.72;102220.41;4426596;32;20319;-71
2022/03/25 03:25:33;;;;;;;;;;;;;;;8.10;61.16;102215.97;4426281;32;19980;-71
2022/03/25 03:27:58;;;;;;;;;;;;;;;8.03;61.30;102209.47;4425535;32;20329;-71
2022/03/25 03:30:24;;;;;;;;;;;;;;;9.30;58.69;102217.63;4424933;32;19965;-71
2022/03/25 03:32:55;;;;;;;;;;;;;;;8.20;60.80;102215.25;4423642;32;20293;-71
2022/03/25 03:35:21;;;;;;;;;;;;;;;8.08;61.39;102223.94;4427768;32;20332;-71
2022/03/25 03:37:46;;;;;;;;;;;;;;;7.96;61.82;102220.63;4426777;32;19972;-71
2022/03/25 03:40:14;;;;;;;;;;;;;;;7.91;62.15;102223.78;4425437;32;19993;-71
2022/03/25 03:42:40;;;;;;;;;;;;;;;7.91;61.95;102220.97;4424949;32;19971;-71
2022/03/25 03:45:08;;;;;;;;;;;;;;;7.92;61.78;102222.59;4425145;32;20000;-71
2022/03/25 03:47:34;;;;;;;;;;;;;;;7.87;61.84;102222.94;4426864;32;20000;-71
2022/03/25 03:50:01;;;;;;;;;;;;;;;7.81;62.39;102227.28;4423586;32;19989;-71
2022/03/25 03:52:26;;;;;;;;;;;;;;;7.85;62.40;102226.13;4423675;32;19984;-71
2022/03/25 03:54:52;;;;;;;;;;;;;;;7.73;62.40;102231.19;4425644;32;19982;-71
2022/03/25 03:57:17;;;;;;;;;;;;;;;9.27;59.25;102232.47;4411726;32;20431;-71
2022/03/25 03:59:43;;;;;;;;;;;;;;;11.20;52.18;102231.94;4425369;32;20019;-71
2022/03/25 04:02:09;;;;;;;;;;;;;;;11.49;50.62;102230.63;4422231;32;20003;-71
2022/03/25 04:04:35;;;;;;;;;;;;;;;11.59;50.47;102241.84;4426904;32;19954;-71
2022/03/25 04:07:01;;;;;;;;;;;;;;;11.79;49.99;102240.16;4425148;32;19997;-71
2022/03/25 04:09:27;;;;;;;;;;;;;;;11.74;49.81;102236.97;4411725;32;20370;-71
2022/03/25 04:11:53;;;;;;;;;;;;;;;11.55;50.04;102234.63;4424345;32;20023;-71
2022/03/25 04:14:20;;;;;;;;;;;;;;;11.52;50.31;102235.44;4424767;32;20339;-71
2022/03/25 04:16:46;;;;;;;;;;;;;;;11.55;50.28;102243.06;4426157;32;19958;-71
2022/03/25 04:19:12;;;;;;;;;;;;;;;11.58;49.99;102242.25;4423394;32;20459;-71
2022/03/25 04:21:38;;;;;;;;;;;;;;;11.43;50.45;102240.69;4425757;32;19997;-71
2022/03/25 04:24:04;;;;;;;;;;;;;;;11.61;50.07;102235.81;4425947;32;20002;-71
2022/03/25 04:26:30;;;;;;;;;;;;;;;11.58;50.11;102234.63;4425061;32;19954;-71
2022/03/25 04:28:56;;;;;;;;;;;;;;;11.48;50.28;102232.63;4426403;32;19984;-71
2022/03/25 04:31:22;;;;;;;;;;;;;;;11.75;49.56;102235.75;4424260;32;19972;-71
2022/03/25 04:33:47;;;;;;;;;;;;;;;11.75;49.46;102238.56;4425855;32;19984;-71
2022/03/25 04:36:13;;;;;;;;;;;;;;;11.49;49.90;102239.06;4426116;32;20504;-71
2022/03/25 04:38:41;;;;;;;;;;;;;;;11.38;50.16;102241.09;4425747;32;19953;-71
2022/03/25 04:41:10;;;;;;;;;;;;;;;11.43;50.11;102240.69;4424272;32;19969;-71
2022/03/25 04:43:36;;;;;;;;;;;;;;;11.48;50.25;102240.28;4425236;32;19980;-71
2022/03/25 04:46:02;;;;;;;;;;;;;;;11.54;49.68;102239.44;4425746;32;20046;-71
2022/03/25 04:48:28;;;;;;;;;;;;;;;11.55;49.64;102240.25;4424848;32;20398;-71
2022/03/25 04:50:54;;;;;;;;;;;;;;;11.50;49.81;102243.47;4409762;32;20584;-71
2022/03/25 04:53:20;;;;;;;;;;;;;;;11.53;49.65;102243.47;4426291;32;20005;-71
2022/03/25 04:55:45;;;;;;;;;;;;;;;11.50;49.76;102246.31;4426474;32;19952;-71
2022/03/25 04:58:11;;;;;;;;;;;;;;;11.49;49.71;102250.34;4423876;32;19949;-71
2022/03/25 05:00:37;;;;;;;;;;;;;;;11.27;50.57;102243.19;4419777;32;19997;-71
2022/03/25 05:03:03;;;;;;;;;;;;;;;11.21;50.49;102247.63;4423095;32;20018;-71
2022/03/25 05:05:31;;;;;;;;;;;;;;;11.33;50.04;102244.38;4426859;32;20275;-71
2022/03/25 05:07:58;;;;;;;;;;;;;;;11.09;51.02;102250.87;4426361;32;19953;-71
2022/03/25 05:10:23;;;;;;;;;;;;;;;11.12;50.75;102245.22;4425322;32;20040;-71
2022/03/25 05:12:49;;;;;;;;;;;;;;;11.14;50.69;102247.66;4424650;32;19968;-71
2022/03/25 05:15:15;;;;;;;;;;;;;;;11.38;49.90;102253.19;4425804;32;20365;-70
2022/03/25 05:17:44;;;;;;;;;;;;;;;11.16;50.63;102254.47;4426187;32;19961;-70
2022/03/25 05:20:10;;;;;;;;;;;;;;;11.32;50.42;102252.00;4424681;32;19972;-70
2022/03/25 05:22:36;;;;;;;;;;;;;;;11.21;50.50;102256.87;4424404;32;19965;-71
2022/03/25 05:25:06;;;;;;;;;;;;;;;11.23;50.50;102250.84;4425494;32;19967;-71
2022/03/25 05:27:42;;;;;;;;;;;;;;;11.03;50.86;102258.13;4423063;32;19980;-71
2022/03/25 05:30:08;;;;;;;;;;;;;;;11.14;50.91;102259.69;4423925;32;20365;-71
2022/03/25 05:32:34;;;;;;;;;;;;;;;11.26;50.48;102262.09;4423478;32;19987;-71
2022/03/25 05:35:01;;;;;;;;;;;;;;;11.32;50.41;102270.97;4426671;32;20275;-71
2022/03/25 05:37:26;;;;;;;;;;;;;;;11.32;50.32;102274.56;4423694;32;19981;-71
2022/03/25 05:39:52;;;;;;;;;;;;;;;11.11;50.91;102276.63;4424215;32;19965;-71
2022/03/25 05:42:17;;;;;;;;;;;;;;;11.25;50.36;102270.94;4422828;32;19992;-71
2022/03/25 05:44:43;;;;;;;;;;;;;;;11.34;50.27;102269.34;4425147;32;20056;-71
2022/03/25 05:47:09;;;;;;;;;;;;;;;11.27;50.03;102271.38;4424311;32;19968;-71
2022/03/25 05:49:34;;;;;;;;;;;;;;;11.20;50.40;102280.63;4424408;32;20368;-71
2022/03/25 05:52:00;;;;;;;;;;;;;;;11.29;50.24;102274.59;4423166;32;19977;-71
2022/03/25 05:54:25;;;;;;;;;;;;;;;11.20;50.36;102277.03;4424717;32;19953;-71
2022/03/25 05:56:51;;;;;;;;;;;;;;;11.21;50.38;102284.25;4419146;32;19991;-71
2022/03/25 05:59:17;;;;;;;;;;;;;;;11.14;50.41;102287.09;4423009;32;19985;-71
2022/03/25 06:01:43;;;;;;;;;;;;;;;10.99;50.77;102282.69;4423368;32;20010;-71
2022/03/25 06:04:09;;;;;;;;;;;;;;;11.11;50.53;102293.53;4425121;32;19958;-71
2022/03/25 06:06:34;;;;;;;;;;;;;;;11.08;50.78;102288.72;4423968;32;20040;-71
2022/03/25 06:09:00;;;;;;;;;;;;;;;10.80;51.24;102288.75;4425269;32;19989;-71
2022/03/25 06:11:26;;;;;;;;;;;;;;;10.84;51.29;102286.72;4423486;32;19982;-71
2022/03/25 06:13:52;;;;;;;;;;;;;;;10.74;51.26;102295.97;4424686;32;19957;-71
2022/03/25 06:16:18;;;;;;;;;;;;;;;10.77;51.22;102295.97;4411047;32;20383;-71
2022/03/25 06:18:44;;;;;;;;;;;;;;;10.78;50.97;102291.97;4421373;32;20374;-71
2022/03/25 06:21:09;;;;;;;;;;;;;;;10.83;51.13;102299.97;4417492;32;20001;-71
2022/03/25 06:23:35;;;;;;;;;;;;;;;10.81;51.06;102295.97;4422091;32;20390;-71
2022/03/25 06:26:01;;;;;;;;;;;;;;;10.77;51.10;102287.50;4426774;32;19953;-71
2022/03/25 06:28:27;;;;;;;;;;;;;;;11.19;50.29;102295.13;4424175;32;19998;-71
2022/03/25 06:30:53;;;;;;;;;;;;;;;11.15;50.01;102294.31;4422885;32;19977;-71
2022/03/25 06:33:18;;;;;;;;;;;;;;;11.04;50.41;102301.97;4409203;32;20345;-71
2022/03/25 06:35:44;;;;;;;;;;;;;;;11.30;50.08;102305.19;4426233;32;19976;-71
2022/03/25 06:38:10;;;;;;;;;;;;;;;11.17;50.22;102303.97;4424444;32;19975;-71
2022/03/25 06:40:36;;;;;;;;;;;;;;;11.48;49.30;102311.56;4421928;32;19954;-71
2022/03/25 06:43:02;;;;;;;;;;;;;;;11.52;49.29;102315.19;4425118;32;19996;-71
2022/03/25 06:45:27;;;;;;;;;;;;;;;11.54;49.35;102317.59;4424715;32;20039;-71
2022/03/25 06:47:53;;;;;;;;;;;;;;;11.69;49.07;102316.38;4423830;32;20345;-71
2022/03/25 06:50:21;;;;;;;;;;;;;;;11.77;48.94;102321.59;4426886;32;20033;-71
2022/03/25 06:52:47;;;;;;;;;;;;;;;11.77;48.50;102321.59;4426828;32;19989;-71
2022/03/25 06:55:13;;;;;;;;;;;;;;;11.69;48.95;102327.66;4427064;32;20361;-71
2022/03/25 06:57:39;;;;;;;;;;;;;;;11.46;49.22;102313.19;4426988;32;20386;-71
2022/03/25 07:00:05;;;;;;;;;;;;;;;11.46;49.23;102318.81;4425661;32;20420;-71
2022/03/25 07:02:31;;;;;;;;;;;;;;;11.54;49.19;102323.25;4426296;32;19993;-71
2022/03/25 07:04:56;;;;;;;;;;;;;;;11.90;48.54;102325.56;4426332;32;20011;-71
2022/03/25 07:07:26;;;;;;;;;;;;;;;11.86;48.55;102316.31;4426592;32;19949;-71
2022/03/25 07:09:54;;;;;;;;;;;;;;;11.92;48.59;102325.97;4426752;32;21077;-71
2022/03/25 07:12:20;;;;;;;;;;;;;;;12.12;48.25;102325.47;4425121;32;19953;-71
2022/03/25 07:14:46;;;;;;;;;;;;;;;12.39;47.82;102338.59;4425896;32;19965;-71
2022/03/25 07:17:11;;;;;;;;;;;;;;;12.77;46.75;102329.06;4425284;32;19969;-71
2022/03/25 07:19:37;;;;;;;;;;;;;;;12.76;46.52;102333.09;4424652;32;19949;-71
2022/03/25 07:22:03;;;;;;;;;;;;;;;12.38;47.60;102333.34;4426767;32;20013;-71
2022/03/25 07:24:29;;;;;;;;;;;;;;;12.70;46.77;102343.22;4412224;32;20056;-71
2022/03/25 07:26:55;;;;;;;;;;;;;;;12.71;46.60;102336.38;4426782;32;19962;-71
2022/03/25 07:29:21;;;;;;;;;;;;;;;12.73;46.57;102341.63;4423587;32;19979;-71
2022/03/25 07:31:48;;;;;;;;;;;;;;;12.83;46.39;102341.53;4425761;32;20009;-71
2022/03/25 07:34:14;;;;;;;;;;;;;;;13.03;46.06;102350.25;4425315;32;19998;-71
2022/03/25 07:36:39;;;;;;;;;;;;;;;13.22;45.53;102344.84;4423742;32;19997;-71
2022/03/25 07:39:06;;;;;;;;;;;;;;;13.41;44.88;102358.38;4422193;32;19992;-71
2022/03/25 07:41:31;;;;;;;;;;;;;;;13.58;45.03;102362.25;4421172;32;20335;-71
2022/03/25 07:43:58;;;;;;;;;;;;;;;13.88;44.37;102360.31;4417945;32;20267;-71
2022/03/25 07:46:23;;;;;;;;;;;;;;;13.92;44.43;102366.72;4406643;32;20011;-71
2022/03/25 07:48:50;;;;;;;;;;;;;;;13.84;44.91;102376.50;4418755;32;19961;-71
2022/03/25 07:51:16;;;;;;;;;;;;;;;13.94;43.99;102371.97;4416603;32;20008;-71
2022/03/25 07:53:43;;;;;;;;;;;;;;;13.83;44.01;102374.91;4419324;32;20186;-71
2022/03/25 07:56:09;;;;;;;;;;;;;;;14.17;43.69;102368.44;4420572;32;19954;-71
2022/03/25 07:58:35;;;;;;;;;;;;;;;14.60;42.80;102380.84;4413949;32;20341;-71
2022/03/25 08:01:00;;;;;;;;;;;;;;;14.98;41.72;102385.91;4407881;32;19976;-71
2022/03/25 08:03:26;;;;;;;;;;;;;;;15.07;41.35;102388.19;4411623;32;19982;-72
2022/03/25 08:05:52;;;;;;;;;;;;;;;15.43;41.01;102380.69;4414538;32;20008;-72
2022/03/25 08:08:19;;;;;;;;;;;;;;;15.71;40.38;102383.81;4408176;32;20640;-72
2022/03/25 08:10:46;;;;;;;;;;;;;;;15.88;39.90;102396.06;4411270;32;20029;-72
2022/03/25 08:13:11;;;;;;;;;;;;;;;16.07;39.86;102385.97;4412638;32;19989;-72
2022/03/25 08:15:37;;;;;;;;;;;;;;;16.24;39.70;102391.28;4412457;32;19996;-72
2022/03/25 08:18:05;;;;;;;;;;;;;;;16.48;39.25;102392.00;4400347;32;19977;-72
2022/03/25 08:20:39;;;;;;;;;;;;;;;16.56;39.04;102396.28;4408169;32;20385;-72
2022/03/25 08:23:06;;;;;;;;;;;;;;;16.76;38.84;102397.06;4410221;32;20024;-72
2022/03/25 08:28:18;;;;;;;;;;;;;;;16.81;38.49;102396.53;4410501;32;20005;-72
2022/03/25 08:30:44;;;;;;;;;;;;;;;17.61;37.15;102405.87;4407471;32;20011;-71
2022/03/25 08:33:11;;;;;;;;;;;;;;;17.55;37.06;102399.13;4411548;32;20983;-72
2022/03/25 08:35:37;;;;;;;;;;;;;;;17.82;36.36;102411.00;4412274;32;19993;-72
2022/03/25 08:38:03;;;;;;;;;;;;;;;18.06;36.11;102410.75;4410261;32;20060;-72
2022/03/25 08:40:29;;;;;;;;;;;;;;;17.66;35.89;102404.56;4411596;32;20028;-72
2022/03/25 08:42:55;;;;;;;;;;;;;;;18.94;34.51;102406.88;4414556;32;20500;-72
2022/03/25 08:45:21;;;;;;;;;;;;;;;19.41;33.25;102406.94;4409985;32;20005;-72
2022/03/25 08:47:48;;;;;;;;;;;;;;;19.80;32.37;102404.31;4411743;32;20031;-73
2022/03/25 08:50:14;;;;;;;;;;;;;;;20.06;31.83;102410.75;4411681;32;20216;-72
2022/03/25 08:52:40;;;;;;;;;;;;;;;20.07;31.89;102418.06;4411432;32;20058;-72
2022/03/25 08:55:06;;;;;;;;;;;;;;;20.46;30.81;102420.28;4411605;32;19992;-73
2022/03/25 08:57:32;;;;;;;;;;;;;;;20.93;30.05;102420.06;4412023;32;20394;-73
2022/03/25 08:59:57;;;;;;;;;;;;;;;21.26;28.78;102419.09;4412591;32;20311;-72
2022/03/25 09:02:23;;;;;;;;;;;;;;;21.65;27.89;102423.97;4409982;32;20001;-74
2022/03/25 09:04:49;;;;;;;;;;;;;;;21.90;27.56;102425.00;4411776;32;20008;-74
2022/03/25 09:07:14;;;;;;;;;;;;;;;22.08;26.75;102425.78;4412597;32;20009;-72
2022/03/25 09:09:40;;;;;;;;;;;;;;;22.20;26.67;102429.75;4412320;32;20961;-74
2022/03/25 09:12:08;;;;;;;;;;;;;;;22.44;26.70;102436.44;4412207;32;19988;-74
2022/03/25 09:14:33;;;;;;;;;;;;;;;22.10;26.55;102431.03;4414757;32;20016;-72
2022/03/25 09:17:00;;;;;;;;;;;;;;;22.34;26.32;102440.59;4413781;32;19961;-73
2022/03/25 09:19:26;;;;;;;;;;;;;;;22.82;25.91;102437.47;4409638;32;19984;-72
2022/03/25 09:21:51;;;;;;;;;;;;;;;22.71;25.77;102440.09;4412480;32;20028;-72
2022/03/25 09:24:17;;;;;;;;;;;;;;;22.58;26.39;102438.69;4413902;32;20334;-72
2022/03/25 09:26:42;;;;;;;;;;;;;;;23.43;25.21;102444.75;4411353;32;20001;-72
2022/03/25 09:29:08;;;;;;;;;;;;;;;23.75;24.48;102443.13;4411514;32;20297;-72
2022/03/25 09:31:34;;;;;;;;;;;;;;;24.19;24.26;102444.06;4411813;32;19985;-72
2022/03/25 09:36:45;;;;;;;;;;;;;;;22.54;25.50;102441.69;4409110;32;19995;-73
2022/03/25 09:39:11;;;;;;;;;;;;;;;22.62;25.36;102437.22;4410639;32;20073;-73
2022/03/25 09:41:36;;;;;;;;;;;;;;;24.62;23.04;102438.38;4410888;32;19968;-73
2022/03/25 09:44:02;;;;;;;;;;;;;;;24.85;22.36;102446.13;4412847;32;21209;-73
2022/03/25 09:46:28;;;;;;;;;;;;;;;24.86;21.82;102450.63;4407620;32;20093;-72
2022/03/25 09:48:54;;;;;;;;;;;;;;;25.24;21.92;102456.22;4409846;32;20010;-72
2022/03/25 09:51:20;;;;;;;;;;;;;;;25.61;21.40;102452.88;4410172;32;19997;-72
2022/03/25 09:53:47;;;;;;;;;;;;;;;26.31;20.56;102454.31;4399126;32;20245;-74
2022/03/25 09:56:14;;;;;;;;;;;;;;;26.34;19.93;102457.00;4408790;32;20347;-73
2022/03/25 09:58:39;;;;;;;;;;;;;;;27.15;19.17;102460.41;4410268;32;20012;-73
2022/03/25 10:01:05;;;;;;;;;;;;;;;25.94;20.19;102456.19;4409894;32;20019;-73
2022/03/25 10:03:32;;;;;;;;;;;;;;;26.03;20.23;102462.66;4412449;32;19975;-72
2022/03/25 10:05:59;;;;;;;;;;;;;;;26.67;19.48;102463.16;4404584;32;20366;-72
2022/03/25 10:08:32;;;;;;;;;;;;;;;27.81;18.06;102465.88;4411154;32;19992;-73
2022/03/25 10:11:17;;;;;;;;;;;;;;;26.97;18.49;102463.69;4410654;32;20009;-73
2022/03/25 10:13:43;;;;;;;;;;;;;;;27.48;17.99;102457.78;4407830;32;19993;-73
2022/03/25 10:16:24;;;;;;;;;;;;;;;27.96;17.67;102461.53;4413603;32;20381;-74
2022/03/25 10:18:52;;;;;;;;;;;;;;;28.23;17.38;102455.06;4410310;32;19957;-71
2022/03/25 10:21:19;;;;;;;;;;;;;;;28.38;17.27;102449.81;4403954;32;20021;-71
2022/03/25 10:23:45;;;;;;;;;;;;;;;28.26;17.30;102451.09;4407827;32;20639;-73
2022/03/25 10:26:11;;;;;;;;;;;;;;;27.83;17.51;102451.69;4411236;32;20005;-73
2022/03/25 10:28:40;;;;;;;;;;;;;;;28.35;17.37;102445.06;4416620;32;20488;-73
2022/03/25 10:31:07;;;;;;;;;;;;;;;28.69;16.88;102437.25;4409453;32;20369;-73
2022/03/25 10:33:35;;;;;;;;;;;;;;;27.25;18.22;102432.94;4415024;32;20015;-72
2022/03/25 10:36:08;;;;;;;;;;;;;;;27.19;18.44;102441.53;4411987;32;20014;-73
2022/03/25 10:41:35;;;;;;;;;;;;;;;26.67;19.16;102440.06;3949576;31;15855048;-74
2022/03/25 10:44:05;;;;;;;;;;;;;;;26.67;19.16;102440.06;4436895;32;20000;-74
2022/03/25 10:49:09;;;;;;;;;;;;;;;26.62;19.47;102437.09;3942346;32;15724517;-73
2022/03/25 10:51:37;;;;;;;;;;;;;;;26.62;19.47;102437.09;4413009;32;20477;-73
2022/03/25 10:54:07;;;;;;;;;;;;;;;26.66;19.41;102431.91;4418148;32;20013;-72
2022/03/25 10:56:43;;;;;;;;;;;;;;;27.13;18.63;102432.00;4417897;32;20042;-73
2022/03/25 10:59:19;;;;;;;;;;;;;;;27.56;18.27;102434.97;4418943;32;20014;-72
2022/03/25 11:01:45;;;;;;;;;;;;;;;27.72;17.85;102440.84;4416879;32;20031;-73
2022/03/25 11:04:11;;;;;;;;;;;;;;;27.22;18.29;102440.50;4418514;32;19996;-73
2022/03/25 11:06:39;;;;;;;;;;;;;;;27.35;18.36;102433.50;4419199;32;20488;-73
2022/03/25 11:09:08;;;;;;;;;;;;;;;27.40;18.21;102430.69;4416309;32;20067;-73
2022/03/25 11:11:33;;;;;;;;;;;;;;;27.38;16.95;102441.97;4417805;32;21468;-73
2022/03/25 11:13:59;;;;;;;;;;;;;;;26.95;17.39;102435.31;4417832;32;20023;-72
2022/03/25 11:16:26;;;;;;;;;;;;;;;26.30;18.16;102444.06;4417374;32;20001;-73
2022/03/25 11:18:52;;;;;;;;;;;;;;;25.94;18.72;102439.69;4418452;32;20046;-74
2022/03/25 11:21:20;;;;;;;;;;;;;;;26.15;18.48;102441.28;4417518;32;20300;-73
2022/03/25 11:23:48;;;;;;;;;;;;;;;26.08;18.90;102440.94;4418969;32;19981;-73
2022/03/25 11:26:14;;;;;;;;;;;;;;;26.46;18.83;102440.56;4418462;32;19992;-73
2022/03/25 11:28:41;;;;;;;;;;;;;;;26.68;18.91;102450.28;4418855;32;20621;-74
2022/03/25 11:31:07;;;;;;;;;;;;;;;26.46;18.52;102440.56;4417832;32;20054;-73
2022/03/25 11:33:53;;;;;;;;;;;;;;;27.31;17.94;102448.22;4417395;32;19973;-73
2022/03/25 11:36:19;;;;;;;;;;;;;;;26.40;19.17;102443.41;4417519;32;19957;-72
2022/03/25 11:38:44;;;;;;;;;;;;;;;26.24;19.52;102440.34;4418884;32;20015;-73
2022/03/25 11:41:26;;;;;;;;;;;;;;;26.64;19.29;102446.03;4416980;32;20405;-72
2022/03/25 11:44:12;;;;;;;;;;;;;;;26.82;19.19;102454.38;4419110;32;20011;-73
2022/03/25 11:46:57;;;;;;;;;;;;;;;27.10;18.82;102443.81;4416833;32;19992;-73
2022/03/25 11:49:23;;;;;;;;;;;;;;;27.50;18.65;102448.59;4391985;32;20011;-73
2022/03/25 11:51:49;;;;;;;;;;;;;;;27.49;18.31;102444.94;4395925;32;19997;-74
2022/03/25 11:54:34;;;;;;;;;;;;;;;28.68;17.39;102444.34;4397685;32;20317;-73
2022/03/25 11:57:02;;;;;;;;;;;;;;;29.43;16.41;102449.12;4398387;32;19992;-74
2022/03/25 11:59:45;;;;;;;;;;;;;;;28.68;16.92;102445.16;4393082;32;19966;-74
2022/03/25 12:02:31;;;;;;;;;;;;;;;28.34;17.09;102449.28;4381842;32;20001;-73
2022/03/25 12:04:57;;;;;;;;;;;;;;;28.59;17.38;102433.03;4386211;32;20036;-73
2022/03/25 12:07:23;;;;;;;;;;;;;;;28.66;16.96;102438.31;4389937;32;19983;-74
2022/03/25 12:09:49;;;;;;;;;;;;;;;28.88;16.25;102436.22;4388819;32;19993;-74
2022/03/25 12:12:15;;;;;;;;;;;;;;;28.96;16.65;102428.56;4388077;32;19997;-74
2022/03/25 12:15:00;;;;;;;;;;;;;;;29.22;16.61;102437.03;4384901;32;19997;-74
2022/03/25 12:17:25;;;;;;;;;;;;;;;29.47;16.37;102435.12;4388196;32;20112;-74
2022/03/25 12:19:53;;;;;;;;;;;;;;;29.42;16.20;102428.00;4388314;32;20391;-73
2022/03/25 12:24:56;;;;;;;;;;;;;;;29.70;16.09;102425.84;3942595;32;15730449;-74
2022/03/25 12:27:23;;;;;;;;;;;;;;;29.61;16.22;102434.03;4418296;32;19988;-74
2022/03/25 12:29:51;;;;;;;;;;;;;;;29.65;16.03;102417.16;4416507;32;19997;-73
2022/03/25 12:32:17;;;;;;;;;;;;;;;30.09;15.72;102425.69;4412034;32;20003;-72
2022/03/25 12:42:48;;;;;;;;;;;;;;;31.08;15.12;102416.31;3942780;32;15724541;-73
2022/03/25 12:45:14;;;;;;;;;;;;;;;31.08;15.12;102416.31;4414477;32;21621;-73
2022/03/25 12:47:43;;;;;;;;;;;;;;;30.90;15.32;102411.19;4416510;32;19992;-73
2022/03/25 12:50:09;;;;;;;;;;;;;;;31.03;15.23;102416.34;4412009;32;20387;-72
2022/03/25 12:52:35;;;;;;;;;;;;;;;31.27;14.97;102417.19;4412227;32;20067;-73
2022/03/25 12:55:05;;;;;;;;;;;;;;;31.58;14.72;102419.53;4401474;32;20471;-73
2022/03/25 12:57:31;;;;;;;;;;;;;;;31.63;14.81;102415.72;4413405;32;20422;-73
2022/03/25 12:59:57;;;;;;;;;;;;;;;31.85;14.78;102417.63;4412271;32;21044;-72